sensor_id;sensor_type;location;lat;lon;timestamp;temperature;humidity
573;DHT22;271;51.114;13.780;2023-10-09T00:01:38;11.10;1.00
573;DHT22;271;51.114;13.780;2023-10-09T00:04:27;11.10;1.00
573;DHT22;271;51.114;13.780;2023-10-09T00:07:15;11.10;1.00
573;DHT22;271;51.114;13.780;2023-10-09T00:10:03;11.00;1.00
573;DHT22;271;51.114;13.780;2023-10-09T00:12:58;11.00;1.00
573;DHT22;271;51.114;13.780;2023-10-09T00:15:46;11.00;1.00
573;DHT22;271;51.114;13.780;2023-10-09T00:18:39;11.00;1.00
573;DHT22;271;51.114;13.780;2023-10-09T00:21:34;11.00;1.00
573;DHT22;271;51.114;13.780;2023-10-09T00:24:24;11.00;1.00
573;DHT22;271;51.114;13.780;2023-10-09T00:27:12;11.10;1.00
573;DHT22;271;51.114;13.780;2023-10-09T00:30:01;11.00;1.00
573;DHT22;271;51.114;13.780;2023-10-09T00:32:49;10.80;1.00
573;DHT22;271;51.114;13.780;2023-10-09T00:35:45;10.90;1.00
573;DHT22;271;51.114;13.780;2023-10-09T00:38:42;11.00;1.00
573;DHT22;271;51.114;13.780;2023-10-09T00:41:35;11.10;1.00
573;DHT22;271;51.114;13.780;2023-10-09T00:44:23;10.90;1.00
573;DHT22;271;51.114;13.780;2023-10-09T00:47:12;11.00;1.00
573;DHT22;271;51.114;13.780;2023-10-09T00:50:13;11.00;1.00
573;DHT22;271;51.114;13.780;2023-10-09T00:53:07;10.90;1.00
573;DHT22;271;51.114;13.780;2023-10-09T00:56:01;10.90;1.00
573;DHT22;271;51.114;13.780;2023-10-09T00:58:58;10.90;1.00
573;DHT22;271;51.114;13.780;2023-10-09T01:01:54;10.90;1.00
573;DHT22;271;51.114;13.780;2023-10-09T01:04:44;10.90;1.00
573;DHT22;271;51.114;13.780;2023-10-09T01:07:32;10.90;1.00
573;DHT22;271;51.114;13.780;2023-10-09T01:10:20;10.90;1.00
573;DHT22;271;51.114;13.780;2023-10-09T01:13:09;10.90;1.00
573;DHT22;271;51.114;13.780;2023-10-09T01:15:58;11.00;1.00
573;DHT22;271;51.114;13.780;2023-10-09T01:18:49;11.00;1.00
573;DHT22;271;51.114;13.780;2023-10-09T01:21:37;10.90;1.00
573;DHT22;271;51.114;13.780;2023-10-09T01:24:27;11.00;1.00
573;DHT22;271;51.114;13.780;2023-10-09T01:27:19;11.10;1.00
573;DHT22;271;51.114;13.780;2023-10-09T01:30:11;11.00;1.00
573;DHT22;271;51.114;13.780;2023-10-09T01:33:00;11.10;1.00
573;DHT22;271;51.114;13.780;2023-10-09T01:35:58;11.10;1.00
573;DHT22;271;51.114;13.780;2023-10-09T01:38:45;11.00;1.00
573;DHT22;271;51.114;13.780;2023-10-09T01:41:36;10.90;1.00
573;DHT22;271;51.114;13.780;2023-10-09T01:44:33;10.90;1.00
573;DHT22;271;51.114;13.780;2023-10-09T01:47:22;10.90;1.00
573;DHT22;271;51.114;13.780;2023-10-09T01:50:12;10.90;1.00
573;DHT22;271;51.114;13.780;2023-10-09T01:53:06;10.80;1.00
573;DHT22;271;51.114;13.780;2023-10-09T01:55:54;10.80;1.00
573;DHT22;271;51.114;13.780;2023-10-09T01:58:44;10.70;1.00
573;DHT22;271;51.114;13.780;2023-10-09T02:01:33;10.60;1.00
573;DHT22;271;51.114;13.780;2023-10-09T02:04:27;10.60;6.40
573;DHT22;271;51.114;13.780;2023-10-09T02:07:15;10.70;4.60
573;DHT22;271;51.114;13.780;2023-10-09T02:10:09;10.60;4.00
573;DHT22;271;51.114;13.780;2023-10-09T02:13:07;10.60;5.00
573;DHT22;271;51.114;13.780;2023-10-09T02:15:57;10.50;6.00
573;DHT22;271;51.114;13.780;2023-10-09T02:18:59;10.50;4.40
573;DHT22;271;51.114;13.780;2023-10-09T02:21:53;10.50;6.80
573;DHT22;271;51.114;13.780;2023-10-09T02:24:43;10.40;9.30
573;DHT22;271;51.114;13.780;2023-10-09T02:27:44;10.50;9.10
573;DHT22;271;51.114;13.780;2023-10-09T02:30:40;10.40;7.50
573;DHT22;271;51.114;13.780;2023-10-09T02:33:29;10.50;9.80
573;DHT22;271;51.114;13.780;2023-10-09T02:36:18;10.50;7.10
573;DHT22;271;51.114;13.780;2023-10-09T02:39:06;10.40;6.10
573;DHT22;271;51.114;13.780;2023-10-09T02:42:08;10.50;11.10
573;DHT22;271;51.114;13.780;2023-10-09T02:45:07;10.50;6.20
573;DHT22;271;51.114;13.780;2023-10-09T02:47:56;10.40;4.10
573;DHT22;271;51.114;13.780;2023-10-09T02:50:47;10.50;6.20
573;DHT22;271;51.114;13.780;2023-10-09T02:53:37;10.50;5.40
573;DHT22;271;51.114;13.780;2023-10-09T02:56:25;10.50;5.80
573;DHT22;271;51.114;13.780;2023-10-09T02:59:23;10.60;5.50
573;DHT22;271;51.114;13.780;2023-10-09T03:02:11;10.60;7.00
573;DHT22;271;51.114;13.780;2023-10-09T03:04:59;10.70;6.00
573;DHT22;271;51.114;13.780;2023-10-09T03:07:51;10.60;4.70
573;DHT22;271;51.114;13.780;2023-10-09T03:10:40;10.60;5.20
573;DHT22;271;51.114;13.780;2023-10-09T03:13:27;10.60;5.90
573;DHT22;271;51.114;13.780;2023-10-09T03:16:15;10.60;4.30
573;DHT22;271;51.114;13.780;2023-10-09T03:19:05;10.60;1.20
573;DHT22;271;51.114;13.780;2023-10-09T03:21:53;10.70;6.40
573;DHT22;271;51.114;13.780;2023-10-09T03:24:45;10.70;4.20
573;DHT22;271;51.114;13.780;2023-10-09T03:27:32;10.80;4.80
573;DHT22;271;51.114;13.780;2023-10-09T03:30:20;10.80;2.90
573;DHT22;271;51.114;13.780;2023-10-09T03:33:09;10.80;4.50
573;DHT22;271;51.114;13.780;2023-10-09T03:35:57;10.90;5.80
573;DHT22;271;51.114;13.780;2023-10-09T03:38:45;10.90;1.40
573;DHT22;271;51.114;13.780;2023-10-09T03:41:34;10.90;1.00
573;DHT22;271;51.114;13.780;2023-10-09T03:44:28;11.00;4.00
573;DHT22;271;51.114;13.780;2023-10-09T03:47:16;11.10;6.00
573;DHT22;271;51.114;13.780;2023-10-09T03:50:09;11.10;8.30
573;DHT22;271;51.114;13.780;2023-10-09T03:53:10;11.20;11.70
573;DHT22;271;51.114;13.780;2023-10-09T03:55:58;11.30;14.00
573;DHT22;271;51.114;13.780;2023-10-09T03:58:49;11.40;12.50
573;DHT22;271;51.114;13.780;2023-10-09T04:01:37;11.30;12.10
573;DHT22;271;51.114;13.780;2023-10-09T04:04:25;11.30;11.60
573;DHT22;271;51.114;13.780;2023-10-09T04:07:15;11.20;11.70
573;DHT22;271;51.114;13.780;2023-10-09T04:10:03;11.30;15.70
573;DHT22;271;51.114;13.780;2023-10-09T04:13:11;11.30;16.00
573;DHT22;271;51.114;13.780;2023-10-09T04:16:04;11.30;15.80
573;DHT22;271;51.114;13.780;2023-10-09T04:19:06;11.40;15.50
573;DHT22;271;51.114;13.780;2023-10-09T04:21:57;11.40;15.90
573;DHT22;271;51.114;13.780;2023-10-09T04:24:44;11.30;18.60
573;DHT22;271;51.114;13.780;2023-10-09T04:27:34;11.30;19.30
573;DHT22;271;51.114;13.780;2023-10-09T04:30:23;11.40;20.90
573;DHT22;271;51.114;13.780;2023-10-09T04:33:13;11.40;13.50
573;DHT22;271;51.114;13.780;2023-10-09T04:36:14;11.40;13.70
573;DHT22;271;51.114;13.780;2023-10-09T04:39:09;11.40;14.50
573;DHT22;271;51.114;13.780;2023-10-09T04:42:14;11.30;16.60
573;DHT22;271;51.114;13.780;2023-10-09T04:45:22;11.30;21.50
573;DHT22;271;51.114;13.780;2023-10-09T04:48:28;11.30;22.10
573;DHT22;271;51.114;13.780;2023-10-09T04:51:24;11.30;20.80
573;DHT22;271;51.114;13.780;2023-10-09T04:54:22;11.30;17.60
573;DHT22;271;51.114;13.780;2023-10-09T04:57:26;11.30;16.30
573;DHT22;271;51.114;13.780;2023-10-09T05:00:14;11.20;14.80
573;DHT22;271;51.114;13.780;2023-10-09T05:03:21;11.20;19.40
573;DHT22;271;51.114;13.780;2023-10-09T05:06:16;11.10;19.20
573;DHT22;271;51.114;13.780;2023-10-09T05:09:28;11.10;25.70
573;DHT22;271;51.114;13.780;2023-10-09T05:12:36;11.00;24.00
573;DHT22;271;51.114;13.780;2023-10-09T05:15:32;11.00;28.40
573;DHT22;271;51.114;13.780;2023-10-09T05:18:21;10.90;24.50
573;DHT22;271;51.114;13.780;2023-10-09T05:21:13;10.90;29.20
573;DHT22;271;51.114;13.780;2023-10-09T05:24:24;10.90;30.70
573;DHT22;271;51.114;13.780;2023-10-09T05:27:15;11.00;34.70
573;DHT22;271;51.114;13.780;2023-10-09T05:30:05;11.10;35.60
573;DHT22;271;51.114;13.780;2023-10-09T05:33:10;10.90;35.30
573;DHT22;271;51.114;13.780;2023-10-09T05:36:19;10.90;36.60
573;DHT22;271;51.114;13.780;2023-10-09T05:39:21;10.90;37.30
573;DHT22;271;51.114;13.780;2023-10-09T05:42:17;10.90;42.60
573;DHT22;271;51.114;13.780;2023-10-09T05:45:09;11.10;43.30
573;DHT22;271;51.114;13.780;2023-10-09T05:48:10;11.10;43.20
573;DHT22;271;51.114;13.780;2023-10-09T05:51:15;11.10;45.90
573;DHT22;271;51.114;13.780;2023-10-09T05:54:17;11.10;46.70
573;DHT22;271;51.114;13.780;2023-10-09T05:57:23;11.10;46.30
573;DHT22;271;51.114;13.780;2023-10-09T06:00:30;11.10;48.60
573;DHT22;271;51.114;13.780;2023-10-09T06:03:35;11.10;51.90
573;DHT22;271;51.114;13.780;2023-10-09T06:06:34;11.20;52.90
573;DHT22;271;51.114;13.780;2023-10-09T06:09:29;11.10;48.80
573;DHT22;271;51.114;13.780;2023-10-09T06:12:37;11.10;50.60
573;DHT22;271;51.114;13.780;2023-10-09T06:15:37;11.20;53.00
573;DHT22;271;51.114;13.780;2023-10-09T06:18:55;11.10;48.40
573;DHT22;271;51.114;13.780;2023-10-09T06:21:54;11.10;50.50
573;DHT22;271;51.114;13.780;2023-10-09T06:25:26;11.10;53.10
573;DHT22;271;51.114;13.780;2023-10-09T06:28:20;11.00;53.20
573;DHT22;271;51.114;13.780;2023-10-09T06:31:19;11.10;56.90
573;DHT22;271;51.114;13.780;2023-10-09T06:34:32;11.30;58.60
573;DHT22;271;51.114;13.780;2023-10-09T06:37:22;11.30;60.50
573;DHT22;271;51.114;13.780;2023-10-09T06:40:24;11.20;59.30
573;DHT22;271;51.114;13.780;2023-10-09T06:43:31;11.30;57.70
573;DHT22;271;51.114;13.780;2023-10-09T06:46:21;11.40;57.40
573;DHT22;271;51.114;13.780;2023-10-09T06:49:26;11.40;56.10
573;DHT22;271;51.114;13.780;2023-10-09T06:52:19;11.50;55.80
573;DHT22;271;51.114;13.780;2023-10-09T06:55:27;11.50;54.80
573;DHT22;271;51.114;13.780;2023-10-09T06:58:22;11.60;57.30
573;DHT22;271;51.114;13.780;2023-10-09T07:01:14;11.60;57.00
573;DHT22;271;51.114;13.780;2023-10-09T07:04:15;11.70;55.90
573;DHT22;271;51.114;13.780;2023-10-09T07:07:29;11.80;55.40
573;DHT22;271;51.114;13.780;2023-10-09T07:10:22;11.80;53.40
573;DHT22;271;51.114;13.780;2023-10-09T07:13:25;11.80;53.30
573;DHT22;271;51.114;13.780;2023-10-09T07:16:14;11.90;53.70
573;DHT22;271;51.114;13.780;2023-10-09T07:19:24;11.90;53.30
573;DHT22;271;51.114;13.780;2023-10-09T07:22:21;11.90;54.30
573;DHT22;271;51.114;13.780;2023-10-09T07:25:15;11.90;54.10
573;DHT22;271;51.114;13.780;2023-10-09T07:28:14;12.00;53.70
573;DHT22;271;51.114;13.780;2023-10-09T07:31:24;12.00;53.80
573;DHT22;271;51.114;13.780;2023-10-09T07:34:13;12.20;53.30
573;DHT22;271;51.114;13.780;2023-10-09T07:37:39;12.10;47.20
573;DHT22;271;51.114;13.780;2023-10-09T07:40:28;12.10;49.00
573;DHT22;271;51.114;13.780;2023-10-09T07:43:18;12.20;49.70
573;DHT22;271;51.114;13.780;2023-10-09T07:46:13;12.20;52.30
573;DHT22;271;51.114;13.780;2023-10-09T07:49:22;12.30;52.00
573;DHT22;271;51.114;13.780;2023-10-09T07:52:11;12.30;50.70
573;DHT22;271;51.114;13.780;2023-10-09T07:54:59;12.30;50.40
573;DHT22;271;51.114;13.780;2023-10-09T07:57:53;12.40;52.80
573;DHT22;271;51.114;13.780;2023-10-09T08:00:40;12.40;53.60
573;DHT22;271;51.114;13.780;2023-10-09T08:03:38;12.50;53.90
573;DHT22;271;51.114;13.780;2023-10-09T08:06:26;12.50;52.70
573;DHT22;271;51.114;13.780;2023-10-09T08:09:26;12.50;54.00
573;DHT22;271;51.114;13.780;2023-10-09T08:12:32;12.60;53.70
573;DHT22;271;51.114;13.780;2023-10-09T08:15:34;12.60;56.20
573;DHT22;271;51.114;13.780;2023-10-09T08:18:38;12.60;58.00
573;DHT22;271;51.114;13.780;2023-10-09T08:21:31;12.70;58.30
573;DHT22;271;51.114;13.780;2023-10-09T08:24:30;12.70;58.30
573;DHT22;271;51.114;13.780;2023-10-09T08:27:28;12.70;60.60
573;DHT22;271;51.114;13.780;2023-10-09T08:30:34;12.70;62.50
573;DHT22;271;51.114;13.780;2023-10-09T08:33:37;12.80;64.20
573;DHT22;271;51.114;13.780;2023-10-09T08:36:29;12.90;67.70
573;DHT22;271;51.114;13.780;2023-10-09T08:39:22;12.90;70.80
573;DHT22;271;51.114;13.780;2023-10-09T08:42:13;13.00;72.30
573;DHT22;271;51.114;13.780;2023-10-09T08:45:02;13.10;73.80
573;DHT22;271;51.114;13.780;2023-10-09T08:47:54;13.10;75.50
573;DHT22;271;51.114;13.780;2023-10-09T08:50:44;13.20;76.50
573;DHT22;271;51.114;13.780;2023-10-09T08:53:32;13.20;74.80
573;DHT22;271;51.114;13.780;2023-10-09T08:56:21;13.20;75.00
573;DHT22;271;51.114;13.780;2023-10-09T08:59:12;13.30;76.40
573;DHT22;271;51.114;13.780;2023-10-09T09:01:59;13.30;75.70
573;DHT22;271;51.114;13.780;2023-10-09T09:04:49;13.30;75.30
573;DHT22;271;51.114;13.780;2023-10-09T09:07:39;13.30;74.40
573;DHT22;271;51.114;13.780;2023-10-09T09:10:29;13.40;74.80
573;DHT22;271;51.114;13.780;2023-10-09T09:13:21;13.40;75.50
573;DHT22;271;51.114;13.780;2023-10-09T09:16:16;13.40;76.10
573;DHT22;271;51.114;13.780;2023-10-09T09:19:05;13.40;77.20
573;DHT22;271;51.114;13.780;2023-10-09T09:22:07;13.50;77.10
573;DHT22;271;51.114;13.780;2023-10-09T09:25:00;13.50;77.30
573;DHT22;271;51.114;13.780;2023-10-09T09:27:50;13.50;77.30
573;DHT22;271;51.114;13.780;2023-10-09T09:30:41;13.50;77.20
573;DHT22;271;51.114;13.780;2023-10-09T09:33:29;13.50;77.00
573;DHT22;271;51.114;13.780;2023-10-09T09:36:26;13.50;76.50
573;DHT22;271;51.114;13.780;2023-10-09T09:39:17;13.50;76.60
573;DHT22;271;51.114;13.780;2023-10-09T09:42:14;13.60;78.30
573;DHT22;271;51.114;13.780;2023-10-09T09:45:18;13.60;77.50
573;DHT22;271;51.114;13.780;2023-10-09T09:48:16;13.60;77.80
573;DHT22;271;51.114;13.780;2023-10-09T09:51:07;13.60;77.80
573;DHT22;271;51.114;13.780;2023-10-09T09:53:55;13.70;79.00
573;DHT22;271;51.114;13.780;2023-10-09T09:56:50;13.70;79.50
573;DHT22;271;51.114;13.780;2023-10-09T09:59:42;13.70;80.50
573;DHT22;271;51.114;13.780;2023-10-09T10:02:48;13.70;79.60
573;DHT22;271;51.114;13.780;2023-10-09T10:05:37;13.70;80.00
573;DHT22;271;51.114;13.780;2023-10-09T10:08:26;13.80;79.60
573;DHT22;271;51.114;13.780;2023-10-09T10:11:46;13.80;78.70
573;DHT22;271;51.114;13.780;2023-10-09T10:14:56;13.70;77.00
573;DHT22;271;51.114;13.780;2023-10-09T10:18:08;13.70;76.90
573;DHT22;271;51.114;13.780;2023-10-09T10:21:12;13.80;77.70
573;DHT22;271;51.114;13.780;2023-10-09T10:24:41;13.70;76.20
573;DHT22;271;51.114;13.780;2023-10-09T10:27:43;13.80;76.20
573;DHT22;271;51.114;13.780;2023-10-09T10:30:51;13.80;76.30
573;DHT22;271;51.114;13.780;2023-10-09T10:34:04;13.70;75.00
573;DHT22;271;51.114;13.780;2023-10-09T10:36:56;13.80;74.30
573;DHT22;271;51.114;13.780;2023-10-09T10:39:53;13.80;74.10
573;DHT22;271;51.114;13.780;2023-10-09T10:42:48;13.70;73.10
573;DHT22;271;51.114;13.780;2023-10-09T10:46:02;13.70;73.20
573;DHT22;271;51.114;13.780;2023-10-09T10:49:00;13.70;74.80
573;DHT22;271;51.114;13.780;2023-10-09T10:52:01;13.80;75.50
573;DHT22;271;51.114;13.780;2023-10-09T10:55:12;13.80;73.70
573;DHT22;271;51.114;13.780;2023-10-09T10:58:26;13.80;73.00
573;DHT22;271;51.114;13.780;2023-10-09T11:01:23;13.80;73.30
573;DHT22;271;51.114;13.780;2023-10-09T11:04:12;13.80;76.40
573;DHT22;271;51.114;13.780;2023-10-09T11:07:00;13.90;75.70
573;DHT22;271;51.114;13.780;2023-10-09T11:09:54;13.90;74.80
573;DHT22;271;51.114;13.780;2023-10-09T11:12:56;13.90;76.50
573;DHT22;271;51.114;13.780;2023-10-09T11:15:58;13.90;74.80
573;DHT22;271;51.114;13.780;2023-10-09T11:19:01;13.90;76.60
573;DHT22;271;51.114;13.780;2023-10-09T11:22:00;14.00;76.90
573;DHT22;271;51.114;13.780;2023-10-09T11:25:17;14.00;74.60
573;DHT22;271;51.114;13.780;2023-10-09T11:28:23;14.00;73.00
573;DHT22;271;51.114;13.780;2023-10-09T11:31:17;14.00;74.80
573;DHT22;271;51.114;13.780;2023-10-09T11:34:18;14.00;77.10
573;DHT22;271;51.114;13.780;2023-10-09T11:37:23;14.00;78.00
573;DHT22;271;51.114;13.780;2023-10-09T11:40:29;14.10;77.60
573;DHT22;271;51.114;13.780;2023-10-09T11:43:28;14.10;77.10
573;DHT22;271;51.114;13.780;2023-10-09T11:46:37;14.10;76.40
573;DHT22;271;51.114;13.780;2023-10-09T11:49:47;14.10;75.40
573;DHT22;271;51.114;13.780;2023-10-09T11:52:34;14.10;77.20
573;DHT22;271;51.114;13.780;2023-10-09T11:55:25;14.20;76.30
573;DHT22;271;51.114;13.780;2023-10-09T11:58:15;14.10;75.80
573;DHT22;271;51.114;13.780;2023-10-09T12:01:28;14.20;73.20
573;DHT22;271;51.114;13.780;2023-10-09T12:04:21;14.20;71.00
573;DHT22;271;51.114;13.780;2023-10-09T12:07:17;14.20;71.30
573;DHT22;271;51.114;13.780;2023-10-09T12:10:07;14.30;72.10
573;DHT22;271;51.114;13.780;2023-10-09T12:12:56;14.30;69.20
573;DHT22;271;51.114;13.780;2023-10-09T12:15:45;14.20;67.60
573;DHT22;271;51.114;13.780;2023-10-09T12:18:33;14.20;66.30
573;DHT22;271;51.114;13.780;2023-10-09T12:21:21;14.30;67.80
573;DHT22;271;51.114;13.780;2023-10-09T12:24:11;14.30;68.10
573;DHT22;271;51.114;13.780;2023-10-09T12:26:59;14.20;67.30
573;DHT22;271;51.114;13.780;2023-10-09T12:29:48;14.20;65.40
573;DHT22;271;51.114;13.780;2023-10-09T12:32:36;14.30;67.30
573;DHT22;271;51.114;13.780;2023-10-09T12:35:24;14.30;65.10
573;DHT22;271;51.114;13.780;2023-10-09T12:38:12;14.20;63.40
573;DHT22;271;51.114;13.780;2023-10-09T12:41:07;14.20;63.70
573;DHT22;271;51.114;13.780;2023-10-09T12:44:06;14.20;63.80
573;DHT22;271;51.114;13.780;2023-10-09T12:47:01;14.20;65.50
573;DHT22;271;51.114;13.780;2023-10-09T12:49:51;14.20;66.30
573;DHT22;271;51.114;13.780;2023-10-09T12:52:40;14.10;66.60
573;DHT22;271;51.114;13.780;2023-10-09T12:55:28;14.20;66.00
573;DHT22;271;51.114;13.780;2023-10-09T12:58:26;14.20;67.10
573;DHT22;271;51.114;13.780;2023-10-09T13:01:14;14.20;64.80
573;DHT22;271;51.114;13.780;2023-10-09T13:04:03;14.10;64.00
573;DHT22;271;51.114;13.780;2023-10-09T13:06:58;14.10;65.90
573;DHT22;271;51.114;13.780;2023-10-09T13:09:49;14.10;67.30
573;DHT22;271;51.114;13.780;2023-10-09T13:12:54;14.10;67.90
573;DHT22;271;51.114;13.780;2023-10-09T13:15:44;14.10;68.50
573;DHT22;271;51.114;13.780;2023-10-09T13:18:31;14.10;69.60
573;DHT22;271;51.114;13.780;2023-10-09T13:21:20;14.10;68.90
573;DHT22;271;51.114;13.780;2023-10-09T13:24:08;14.20;69.80
573;DHT22;271;51.114;13.780;2023-10-09T13:26:59;14.20;68.60
573;DHT22;271;51.114;13.780;2023-10-09T13:29:50;14.20;68.70
573;DHT22;271;51.114;13.780;2023-10-09T13:32:39;14.20;70.80
573;DHT22;271;51.114;13.780;2023-10-09T13:35:29;14.20;69.40
573;DHT22;271;51.114;13.780;2023-10-09T13:38:24;14.20;69.30
573;DHT22;271;51.114;13.780;2023-10-09T13:41:13;14.30;70.50
573;DHT22;271;51.114;13.780;2023-10-09T13:44:04;14.30;70.90
573;DHT22;271;51.114;13.780;2023-10-09T13:46:52;14.30;72.60
573;DHT22;271;51.114;13.780;2023-10-09T13:49:41;14.30;73.30
573;DHT22;271;51.114;13.780;2023-10-09T13:52:30;14.30;71.70
573;DHT22;271;51.114;13.780;2023-10-09T13:55:18;14.30;71.60
573;DHT22;271;51.114;13.780;2023-10-09T13:58:09;14.20;70.70
573;DHT22;271;51.114;13.780;2023-10-09T14:01:00;14.30;73.30
573;DHT22;271;51.114;13.780;2023-10-09T14:03:48;14.30;73.50
573;DHT22;271;51.114;13.780;2023-10-09T14:06:40;14.30;73.70
573;DHT22;271;51.114;13.780;2023-10-09T14:09:31;14.30;73.20
573;DHT22;271;51.114;13.780;2023-10-09T14:12:24;14.30;73.30
573;DHT22;271;51.114;13.780;2023-10-09T14:15:16;14.30;72.70
573;DHT22;271;51.114;13.780;2023-10-09T14:18:04;14.30;71.70
573;DHT22;271;51.114;13.780;2023-10-09T14:20:55;14.30;73.40
573;DHT22;271;51.114;13.780;2023-10-09T14:23:44;14.30;74.20
573;DHT22;271;51.114;13.780;2023-10-09T14:26:33;14.30;75.90
573;DHT22;271;51.114;13.780;2023-10-09T14:29:21;14.20;75.20
573;DHT22;271;51.114;13.780;2023-10-09T14:32:13;14.30;76.40
573;DHT22;271;51.114;13.780;2023-10-09T14:35:01;14.30;77.00
573;DHT22;271;51.114;13.780;2023-10-09T14:37:54;14.30;78.80
573;DHT22;271;51.114;13.780;2023-10-09T14:40:44;14.30;78.50
573;DHT22;271;51.114;13.780;2023-10-09T14:43:31;14.30;77.50
573;DHT22;271;51.114;13.780;2023-10-09T14:46:20;14.30;77.60
573;DHT22;271;51.114;13.780;2023-10-09T14:49:14;14.30;76.40
573;DHT22;271;51.114;13.780;2023-10-09T14:52:14;14.30;77.80
573;DHT22;271;51.114;13.780;2023-10-09T14:55:05;14.30;78.20
573;DHT22;271;51.114;13.780;2023-10-09T14:57:55;14.30;79.50
573;DHT22;271;51.114;13.780;2023-10-09T15:00:45;14.30;80.30
573;DHT22;271;51.114;13.780;2023-10-09T15:03:33;14.30;80.00
573;DHT22;271;51.114;13.780;2023-10-09T15:06:23;14.30;78.70
573;DHT22;271;51.114;13.780;2023-10-09T15:09:13;14.30;78.20
573;DHT22;271;51.114;13.780;2023-10-09T15:12:09;14.30;80.30
573;DHT22;271;51.114;13.780;2023-10-09T15:14:59;14.30;80.30
573;DHT22;271;51.114;13.780;2023-10-09T15:17:47;14.30;80.60
573;DHT22;271;51.114;13.780;2023-10-09T15:20:35;14.30;82.20
573;DHT22;271;51.114;13.780;2023-10-09T15:23:23;14.30;81.30
573;DHT22;271;51.114;13.780;2023-10-09T15:26:10;14.30;79.20
573;DHT22;271;51.114;13.780;2023-10-09T15:29:02;14.30;80.30
573;DHT22;271;51.114;13.780;2023-10-09T15:31:54;14.30;80.90
573;DHT22;271;51.114;13.780;2023-10-09T15:34:42;14.30;79.90
573;DHT22;271;51.114;13.780;2023-10-09T15:37:30;14.20;80.10
573;DHT22;271;51.114;13.780;2023-10-09T15:40:18;14.30;80.90
573;DHT22;271;51.114;13.780;2023-10-09T15:43:10;14.30;81.60
573;DHT22;271;51.114;13.780;2023-10-09T15:46:00;14.30;82.10
573;DHT22;271;51.114;13.780;2023-10-09T15:48:49;14.30;81.80
573;DHT22;271;51.114;13.780;2023-10-09T15:51:39;14.30;81.90
573;DHT22;271;51.114;13.780;2023-10-09T15:54:29;14.30;81.50
573;DHT22;271;51.114;13.780;2023-10-09T15:57:18;14.30;81.00
573;DHT22;271;51.114;13.780;2023-10-09T16:00:07;14.30;81.90
573;DHT22;271;51.114;13.780;2023-10-09T16:03:00;14.30;79.90
573;DHT22;271;51.114;13.780;2023-10-09T16:05:51;14.20;79.50
573;DHT22;271;51.114;13.780;2023-10-09T16:08:40;14.20;79.60
573;DHT22;271;51.114;13.780;2023-10-09T16:11:28;14.20;82.00
573;DHT22;271;51.114;13.780;2023-10-09T16:14:20;14.20;82.00
573;DHT22;271;51.114;13.780;2023-10-09T16:17:07;14.30;82.00
573;DHT22;271;51.114;13.780;2023-10-09T16:19:55;14.20;82.10
573;DHT22;271;51.114;13.780;2023-10-09T16:22:44;14.30;82.20
573;DHT22;271;51.114;13.780;2023-10-09T16:25:32;14.20;82.20
573;DHT22;271;51.114;13.780;2023-10-09T16:28:21;14.20;81.90
573;DHT22;271;51.114;13.780;2023-10-09T16:31:09;14.20;82.00
573;DHT22;271;51.114;13.780;2023-10-09T16:34:00;14.20;82.10
573;DHT22;271;51.114;13.780;2023-10-09T16:36:48;14.20;83.40
573;DHT22;271;51.114;13.780;2023-10-09T16:39:39;14.20;83.90
573;DHT22;271;51.114;13.780;2023-10-09T16:42:27;14.20;83.50
573;DHT22;271;51.114;13.780;2023-10-09T16:45:15;14.20;82.50
573;DHT22;271;51.114;13.780;2023-10-09T16:48:04;14.20;82.50
573;DHT22;271;51.114;13.780;2023-10-09T16:50:55;14.20;83.60
573;DHT22;271;51.114;13.780;2023-10-09T16:53:44;14.20;84.40
573;DHT22;271;51.114;13.780;2023-10-09T16:56:33;14.20;84.90
573;DHT22;271;51.114;13.780;2023-10-09T16:59:21;14.20;84.10
573;DHT22;271;51.114;13.780;2023-10-09T17:02:09;14.20;83.50
573;DHT22;271;51.114;13.780;2023-10-09T17:04:58;14.20;83.40
573;DHT22;271;51.114;13.780;2023-10-09T17:07:49;14.20;83.80
573;DHT22;271;51.114;13.780;2023-10-09T17:10:37;14.20;84.50
573;DHT22;271;51.114;13.780;2023-10-09T17:13:32;14.20;83.40
573;DHT22;271;51.114;13.780;2023-10-09T17:16:21;14.20;83.40
573;DHT22;271;51.114;13.780;2023-10-09T17:19:10;14.20;84.60
573;DHT22;271;51.114;13.780;2023-10-09T17:22:00;14.20;84.80
573;DHT22;271;51.114;13.780;2023-10-09T17:24:57;14.20;84.70
573;DHT22;271;51.114;13.780;2023-10-09T17:27:44;14.30;86.30
573;DHT22;271;51.114;13.780;2023-10-09T17:30:33;14.20;86.10
573;DHT22;271;51.114;13.780;2023-10-09T17:33:22;14.20;86.40
573;DHT22;271;51.114;13.780;2023-10-09T17:36:12;14.30;87.00
573;DHT22;271;51.114;13.780;2023-10-09T17:39:03;14.30;87.60
573;DHT22;271;51.114;13.780;2023-10-09T17:41:51;14.30;86.70
573;DHT22;271;51.114;13.780;2023-10-09T17:44:39;14.30;86.50
573;DHT22;271;51.114;13.780;2023-10-09T17:47:28;14.40;87.70
573;DHT22;271;51.114;13.780;2023-10-09T17:50:16;14.30;86.50
573;DHT22;271;51.114;13.780;2023-10-09T17:53:07;14.30;86.80
573;DHT22;271;51.114;13.780;2023-10-09T17:55:55;14.40;86.10
573;DHT22;271;51.114;13.780;2023-10-09T17:58:43;14.40;85.90
573;DHT22;271;51.114;13.780;2023-10-09T18:01:36;14.30;86.20
573;DHT22;271;51.114;13.780;2023-10-09T18:04:25;14.40;86.70
573;DHT22;271;51.114;13.780;2023-10-09T18:07:13;14.30;86.90
573;DHT22;271;51.114;13.780;2023-10-09T18:10:05;14.40;88.80
573;DHT22;271;51.114;13.780;2023-10-09T18:12:56;14.40;88.70
573;DHT22;271;51.114;13.780;2023-10-09T18:15:44;14.50;89.00
573;DHT22;271;51.114;13.780;2023-10-09T18:18:31;14.40;88.00
573;DHT22;271;51.114;13.780;2023-10-09T18:21:21;14.50;88.80
573;DHT22;271;51.114;13.780;2023-10-09T18:24:08;14.50;89.10
573;DHT22;271;51.114;13.780;2023-10-09T18:27:00;14.50;89.00
573;DHT22;271;51.114;13.780;2023-10-09T18:29:48;14.50;89.70
573;DHT22;271;51.114;13.780;2023-10-09T18:32:35;14.50;91.40
573;DHT22;271;51.114;13.780;2023-10-09T18:35:23;14.50;90.20
573;DHT22;271;51.114;13.780;2023-10-09T18:38:15;14.50;90.80
573;DHT22;271;51.114;13.780;2023-10-09T18:41:05;14.60;91.20
573;DHT22;271;51.114;13.780;2023-10-09T18:43:53;14.60;91.00
573;DHT22;271;51.114;13.780;2023-10-09T18:46:42;14.60;91.00
573;DHT22;271;51.114;13.780;2023-10-09T18:49:30;14.60;91.00
573;DHT22;271;51.114;13.780;2023-10-09T18:52:17;14.60;90.80
573;DHT22;271;51.114;13.780;2023-10-09T18:55:09;14.60;90.50
573;DHT22;271;51.114;13.780;2023-10-09T18:57:57;14.60;91.10
573;DHT22;271;51.114;13.780;2023-10-09T19:00:45;14.70;91.50
573;DHT22;271;51.114;13.780;2023-10-09T19:03:37;14.70;91.50
573;DHT22;271;51.114;13.780;2023-10-09T19:06:25;14.70;91.30
573;DHT22;271;51.114;13.780;2023-10-09T19:09:15;14.60;91.80
573;DHT22;271;51.114;13.780;2023-10-09T19:12:08;14.70;92.80
573;DHT22;271;51.114;13.780;2023-10-09T19:14:56;14.70;91.80
573;DHT22;271;51.114;13.780;2023-10-09T19:17:43;14.70;92.20